This is the latest recevied weather packets stored in our database for station/object HI3FAM-13. If no packets are shown the sender has not sent any weather packets the latest 10 day(s).
| Time | Temp. | Humidity | Pressure | Rain* | Wind** | Luminosity | Snow |
|---|---|---|---|---|---|---|---|
| 1788224954 | 24.44° C | 85% | 1014 hPa | 0 mm | - | - | - |
| 1788224352 | 25° C | 82% | 1015 hPa | 0 mm | - | - | - |
| 1788223751 | 25.56° C | 78% | 1014 hPa | 0 mm | - | - | - |
| 1788223150 | 26.11° C | 75% | 1014 hPa | 0 mm | - | - | - |
| 1788222549 | 24.44° C | 85% | 1014 hPa | 0 mm | - | - | - |
| 1788221947 | 27.22° C | 65% | 1014 hPa | 0 mm | - | - | - |
| 1788221346 | 27.22° C | 65% | 1014 hPa | 0 mm | - | - | - |
| 1788220745 | 27.22° C | 65% | 1014 hPa | 0 mm | - | - | - |
| 1788220144 | 27.22° C | 65% | 1014 hPa | 1.52 mm | - | - | - |
| 1788219543 | 27.78° C | 65% | 1013 hPa | 0.51 mm | - | - | - |
| 1788218942 | 27.78° C | 65% | 1012 hPa | 1.02 mm | - | - | - |
| 1788218341 | 27.78° C | 65% | 1012 hPa | 0 mm | - | - | - |
| 1788217740 | 27.78° C | 65% | 1012 hPa | 0 mm | - | - | - |
| 1788217139 | 27.78° C | 65% | 1012 hPa | 0 mm | - | - | - |
| 1788216538 | 27.78° C | 65% | 1012 hPa | 0 mm | - | - | - |
| 1788215937 | 28.33° C | 65% | 1012 hPa | 0 mm | - | - | - |
| 1788215336 | 28.33° C | 65% | 1012 hPa | 0 mm | - | - | - |
| 1788214735 | 28.89° C | 65% | 1012 hPa | 0 mm | - | - | - |
| 1788214133 | 29.44° C | 65% | 1012 hPa | 0 mm | - | - | - |
| 1788213531 | 30° C | 65% | 1012 hPa | 0.51 mm | - | - | - |
| 1788212930 | 30° C | 64% | 1012 hPa | 0.51 mm | - | - | - |
| 1788212329 | 30° C | 63% | 1012 hPa | 0.51 mm | - | - | - |
| 1788211728 | 30° C | 63% | 1011 hPa | 0.51 mm | - | - | - |
| 1788211127 | 30° C | 62% | 1011 hPa | 0.76 mm | - | - | - |
| 1788210526 | 31.11° C | 59% | 1011 hPa | 0.25 mm | - | - | - |
* Rain latest hour (hover to see other rain measurements)
** Current wind speed in m/s (hover to see current wind gust speed)